Time;durP1;ratioP1;P1;durP2;ratioP2;P2;SDS_P1;SDS_P2;PMS_P1;PMS_P2;Temp;Humidity;BMP_temperature;BMP_pressure;BME280_temperature;BME280_humidity;BME280_pressure;Samples;Min_cycle;Max_cycle;Signal;HPM_P1;HPM_P2
2021/12/26 00:02:04;;;;;;;11.10;5.82;;;;;;;;;;5034277;28;20045;-36
2021/12/26 00:04:31;;;;;;;14.40;7.30;;;;;;;;;;5034457;28;20033;-36
2021/12/26 00:06:56;;;;;;;9.63;4.78;;;;;;;;;;5034285;28;20120;-35
2021/12/26 00:09:22;;;;;;;9.90;5.78;;;;;;;;;;5034397;28;20109;-36
2021/12/26 00:11:47;;;;;;;14.68;6.07;;;;;;;;;;5034177;28;20433;-36
2021/12/26 00:14:13;;;;;;;12.65;5.90;;;;;;;;;;5034164;28;20152;-36
2021/12/26 00:16:38;;;;;;;11.93;5.70;;;;;;;;;;5034076;28;20017;-36
2021/12/26 00:19:03;;;;;;;11.52;6.35;;;;;;;;;;5034019;28;20017;-36
2021/12/26 00:21:29;;;;;;;11.85;5.60;;;;;;;;;;5033828;28;20042;-36
2021/12/26 00:23:57;;;;;;;11.05;5.15;;;;;;;;;;5033946;28;20061;-36
2021/12/26 00:26:22;;;;;;;5.75;3.92;;;;;;;;;;5033805;28;20040;-36
2021/12/26 00:28:48;;;;;;;7.78;3.92;;;;;;;;;;5033908;28;20022;-36
2021/12/26 00:31:14;;;;;;;10.15;5.38;;;;;;;;;;5033842;28;20029;-36
2021/12/26 00:33:40;;;;;;;6.78;3.50;;;;;;;;;;5032358;28;20502;-36
2021/12/26 00:36:06;;;;;;;8.02;4.63;;;;;;;;;;5032492;28;20033;-35
2021/12/26 00:38:32;;;;;;;9.25;3.65;;;;;;;;;;5032396;28;20117;-36
2021/12/26 00:40:58;;;;;;;10.05;4.85;;;;;;;;;;5033324;28;20476;-36
2021/12/26 00:43:23;;;;;;;10.50;5.32;;;;;;;;;;5032229;28;20025;-36
2021/12/26 00:45:49;;;;;;;6.85;3.55;;;;;;;;;;5033548;28;20029;-36
2021/12/26 00:48:14;;;;;;;6.40;3.85;;;;;;;;;;5032038;28;20083;-36
2021/12/26 00:50:42;;;;;;;6.03;4.18;;;;;;;;;;5032583;28;20041;-36
2021/12/26 00:53:07;;;;;;;9.15;3.90;;;;;;;;;;5033708;28;20417;-36
2021/12/26 00:55:33;;;;;;;8.98;4.07;;;;;;;;;;5033184;28;20124;-35
2021/12/26 00:57:59;;;;;;;5.57;3.55;;;;;;;;;;5033620;28;20108;-36
2021/12/26 01:00:30;;;;;;;7.28;4.45;;;;;;;;;;5031801;28;20068;-36
2021/12/26 01:02:56;;;;;;;6.25;4.20;;;;;;;;;;5048503;28;20044;-36
2021/12/26 01:05:23;;;;;;;9.90;4.45;;;;;;;;;;5031805;28;20371;-36
2021/12/26 01:10:17;;;;;;;9.02;4.32;;;;;;;;;;5031800;28;20452;-36
2021/12/26 01:12:43;;;;;;;9.85;5.50;;;;;;;;;;5031740;28;20431;-36
2021/12/26 01:15:10;;;;;;;13.48;7.10;;;;;;;;;;5031710;28;20025;-36
2021/12/26 01:17:43;;;;;;;16.20;5.88;;;;;;;;;;5031368;28;20112;-36
2021/12/26 01:20:18;;;;;;;10.75;5.82;;;;;;;;;;5031545;28;20029;-36
2021/12/26 01:22:44;;;;;;;10.43;5.68;;;;;;;;;;5048238;28;20124;-36
2021/12/26 01:25:13;;;;;;;12.60;6.78;;;;;;;;;;5031450;28;20029;-36
2021/12/26 01:27:39;;;;;;;15.27;8.93;;;;;;;;;;5031328;28;20025;-36
2021/12/26 01:30:05;;;;;;;11.75;6.68;;;;;;;;;;5031400;28;20388;-36
2021/12/26 01:32:31;;;;;;;9.25;5.40;;;;;;;;;;5031308;28;20104;-36
2021/12/26 01:35:16;;;;;;;8.45;5.97;;;;;;;;;;5032868;28;20029;-37
2021/12/26 01:38:00;;;;;;;9.95;4.95;;;;;;;;;;5031195;28;20084;-36
2021/12/26 01:40:53;;;;;;;11.60;5.25;;;;;;;;;;5031307;28;20566;-36
2021/12/26 01:43:38;;;;;;;12.73;5.18;;;;;;;;;;5032403;28;20079;-36
2021/12/26 01:46:17;;;;;;;15.48;5.22;;;;;;;;;;5031416;28;20053;-36
2021/12/26 01:48:43;;;;;;;8.70;4.18;;;;;;;;;;5031061;28;20029;-36
2021/12/26 01:51:08;;;;;;;7.15;4.70;;;;;;;;;;5030968;28;20034;-36
2021/12/26 01:53:39;;;;;;;7.93;4.28;;;;;;;;;;5030872;28;20043;-35
2021/12/26 01:56:09;;;;;;;7.45;4.50;;;;;;;;;;5030913;28;20457;-36
2021/12/26 01:58:36;;;;;;;7.53;5.18;;;;;;;;;;5030744;28;20103;-36
2021/12/26 02:01:16;;;;;;;9.80;5.40;;;;;;;;;;5030761;28;20502;-36
2021/12/26 02:03:42;;;;;;;8.10;4.32;;;;;;;;;;5030716;28;20053;-36
2021/12/26 02:06:08;;;;;;;9.38;5.55;;;;;;;;;;5030716;28;20415;-36
2021/12/26 02:08:41;;;;;;;8.73;4.78;;;;;;;;;;5030592;28;20056;-36
2021/12/26 02:11:07;;;;;;;13.82;5.57;;;;;;;;;;5030699;28;20053;-38
2021/12/26 02:13:33;;;;;;;7.50;4.80;;;;;;;;;;5030388;28;20075;-36
2021/12/26 02:16:00;;;;;;;11.65;5.65;;;;;;;;;;5047171;28;20605;-35
2021/12/26 02:18:26;;;;;;;9.35;4.80;;;;;;;;;;5030427;28;20029;-36
2021/12/26 02:28:42;;;;;;;11.40;5.57;;;;;;;;;;5030203;28;20116;-36
2021/12/26 02:31:08;;;;;;;8.35;4.72;;;;;;;;;;5030314;28;20134;-36
2021/12/26 02:33:34;;;;;;;9.38;4.15;;;;;;;;;;5030207;28;20523;-36
2021/12/26 02:36:01;;;;;;;5.00;3.40;;;;;;;;;;5030141;28;20056;-36
2021/12/26 02:38:27;;;;;;;6.47;4.00;;;;;;;;;;5030177;28;20099;-36
2021/12/26 02:40:54;;;;;;;9.35;4.63;;;;;;;;;;5046490;28;20504;-36
2021/12/26 02:43:22;;;;;;;7.90;4.47;;;;;;;;;;5030043;28;20025;-36
2021/12/26 02:45:48;;;;;;;4.68;3.25;;;;;;;;;;5030127;28;20035;-35
2021/12/26 02:48:14;;;;;;;5.30;3.30;;;;;;;;;;5030092;28;20025;-35
2021/12/26 02:50:40;;;;;;;5.15;3.05;;;;;;;;;;5030006;28;20231;-36
2021/12/26 02:53:06;;;;;;;6.07;4.45;;;;;;;;;;5030038;28;20067;-36
2021/12/26 02:55:32;;;;;;;7.45;4.50;;;;;;;;;;5029851;28;20112;-36
2021/12/26 02:58:02;;;;;;;9.77;3.97;;;;;;;;;;5030003;28;20120;-36
2021/12/26 03:00:31;;;;;;;4.47;2.85;;;;;;;;;;5029834;28;20084;-36
2021/12/26 03:02:58;;;;;;;5.85;4.30;;;;;;;;;;5031462;28;20084;-36
2021/12/26 03:05:35;;;;;;;11.45;4.88;;;;;;;;;;5029748;28;20691;-36
2021/12/26 03:08:00;;;;;;;8.05;4.15;;;;;;;;;;5031154;28;20041;-38
2021/12/26 03:10:27;;;;;;;8.35;4.95;;;;;;;;;;5029778;28;20017;-36
2021/12/26 03:12:55;;;;;;;16.05;7.28;;;;;;;;;;5030378;28;20369;-36
2021/12/26 03:15:21;;;;;;;6.45;4.13;;;;;;;;;;5035150;28;20025;-35
2021/12/26 03:17:47;;;;;;;10.30;5.80;;;;;;;;;;5050440;28;20057;-36
2021/12/26 03:20:14;;;;;;;14.80;7.60;;;;;;;;;;5033798;28;20080;-36
2021/12/26 03:22:39;;;;;;;17.35;6.97;;;;;;;;;;5035340;28;20041;-36
2021/12/26 03:25:10;;;;;;;6.93;5.03;;;;;;;;;;5034977;28;20021;-36
2021/12/26 03:27:35;;;;;;;9.98;6.15;;;;;;;;;;5034880;28;20435;-36
2021/12/26 03:30:00;;;;;;;8.35;4.90;;;;;;;;;;5033689;28;20075;-36
2021/12/26 03:32:27;;;;;;;11.65;5.40;;;;;;;;;;5033541;28;20029;-36
2021/12/26 03:34:52;;;;;;;7.72;4.53;;;;;;;;;;5033543;28;20017;-36
2021/12/26 03:37:18;;;;;;;9.07;4.65;;;;;;;;;;5033520;28;20120;-36
2021/12/26 03:39:43;;;;;;;13.35;4.63;;;;;;;;;;5034674;28;20026;-36
2021/12/26 03:42:10;;;;;;;9.63;4.38;;;;;;;;;;5033232;28;20049;-36
2021/12/26 03:44:37;;;;;;;11.80;4.78;;;;;;;;;;5033304;28;20091;-36
2021/12/26 03:47:03;;;;;;;5.82;4.22;;;;;;;;;;5033285;28;20034;-36
2021/12/26 03:49:30;;;;;;;6.63;4.70;;;;;;;;;;5017160;28;20418;-36
2021/12/26 03:51:56;;;;;;;9.18;4.70;;;;;;;;;;5033342;28;20025;-36
2021/12/26 03:54:21;;;;;;;7.53;3.63;;;;;;;;;;5033043;28;20017;-37
2021/12/26 03:56:47;;;;;;;6.60;4.20;;;;;;;;;;5033273;28;20029;-36
2021/12/26 03:59:20;;;;;;;10.98;5.20;;;;;;;;;;5034355;28;20438;-35
2021/12/26 04:01:46;;;;;;;7.93;3.92;;;;;;;;;;5033034;28;20041;-36
2021/12/26 04:04:12;;;;;;;11.45;5.38;;;;;;;;;;5033000;28;20824;-36
2021/12/26 04:06:37;;;;;;;11.20;4.35;;;;;;;;;;5034237;28;20108;-36
2021/12/26 04:09:06;;;;;;;13.27;6.05;;;;;;;;;;5032940;28;20526;-36
2021/12/26 04:11:32;;;;;;;18.65;6.43;;;;;;;;;;5034083;28;20040;-37
2021/12/26 04:13:57;;;;;;;9.85;5.20;;;;;;;;;;5032858;28;20029;-36
2021/12/26 04:16:23;;;;;;;9.73;4.93;;;;;;;;;;5032777;28;20030;-36
2021/12/26 04:18:48;;;;;;;8.75;4.13;;;;;;;;;;5032799;28;20361;-36
2021/12/26 04:21:15;;;;;;;6.72;3.70;;;;;;;;;;5032669;28;20442;-36
2021/12/26 04:23:54;;;;;;;9.52;4.85;;;;;;;;;;5032451;28;20036;-36
2021/12/26 04:26:19;;;;;;;15.75;4.50;;;;;;;;;;5032963;28;20029;-36
2021/12/26 04:28:45;;;;;;;9.05;4.70;;;;;;;;;;5032461;28;20052;-36
2021/12/26 04:31:11;;;;;;;8.38;5.05;;;;;;;;;;5032567;28;20091;-36
2021/12/26 04:33:36;;;;;;;7.78;4.78;;;;;;;;;;5032418;28;20021;-36
2021/12/26 04:36:02;;;;;;;9.95;4.03;;;;;;;;;;5033658;28;20049;-36
2021/12/26 04:38:27;;;;;;;8.20;4.68;;;;;;;;;;5033718;28;20032;-35
2021/12/26 04:40:53;;;;;;;7.82;4.43;;;;;;;;;;5032174;28;20728;-36
2021/12/26 04:43:37;;;;;;;9.45;3.95;;;;;;;;;;5033686;28;20171;-35
2021/12/26 04:46:18;;;;;;;8.05;4.57;;;;;;;;;;5032345;28;20086;-36
2021/12/26 04:49:02;;;;;;;4.45;2.92;;;;;;;;;;5033778;28;20140;-36
2021/12/26 04:51:28;;;;;;;8.35;3.95;;;;;;;;;;5032045;28;20032;-36
2021/12/26 04:53:57;;;;;;;7.10;4.68;;;;;;;;;;5033449;28;20029;-36
2021/12/26 04:56:22;;;;;;;8.52;5.80;;;;;;;;;;5031986;28;20035;-37
2021/12/26 04:58:48;;;;;;;6.10;3.95;;;;;;;;;;5032110;28;20112;-36
2021/12/26 05:01:13;;;;;;;6.43;4.07;;;;;;;;;;5048579;28;20041;-35
2021/12/26 05:03:40;;;;;;;11.73;5.85;;;;;;;;;;5033090;28;20487;-36
2021/12/26 05:06:05;;;;;;;20.50;7.10;;;;;;;;;;5033208;28;20030;-36
2021/12/26 05:08:32;;;;;;;15.27;7.38;;;;;;;;;;5033284;28;20028;-36
2021/12/26 05:10:58;;;;;;;13.57;6.55;;;;;;;;;;5033127;28;20108;-37
2021/12/26 05:13:24;;;;;;;9.70;5.50;;;;;;;;;;5032848;28;20017;-36
2021/12/26 05:15:49;;;;;;;12.70;4.18;;;;;;;;;;5031791;28;20035;-36
2021/12/26 05:18:16;;;;;;;7.70;4.45;;;;;;;;;;5031590;28;20053;-36
2021/12/26 05:20:42;;;;;;;7.50;5.35;;;;;;;;;;5031361;28;20068;-36
2021/12/26 05:23:08;;;;;;;14.55;4.72;;;;;;;;;;5031643;28;20033;-36
2021/12/26 05:25:33;;;;;;;8.10;3.95;;;;;;;;;;5031323;28;20067;-36
2021/12/26 05:28:00;;;;;;;7.40;3.85;;;;;;;;;;5048115;28;20034;-36
2021/12/26 05:30:26;;;;;;;6.72;4.68;;;;;;;;;;5031375;28;20526;-37
2021/12/26 05:33:09;;;;;;;7.45;4.13;;;;;;;;;;5017351;28;20101;-36
2021/12/26 05:35:35;;;;;;;8.85;4.20;;;;;;;;;;5030874;28;20117;-36
2021/12/26 05:38:01;;;;;;;6.25;4.40;;;;;;;;;;5047886;28;20479;-36
2021/12/26 05:40:27;;;;;;;8.82;4.68;;;;;;;;;;5032270;28;20075;-36
2021/12/26 05:42:52;;;;;;;8.27;4.15;;;;;;;;;;5032550;28;20033;-36
2021/12/26 05:45:19;;;;;;;4.80;3.33;;;;;;;;;;5031222;28;20037;-36
2021/12/26 05:48:04;;;;;;;8.85;5.00;;;;;;;;;;5032328;28;20071;-36
2021/12/26 05:50:29;;;;;;;8.27;4.82;;;;;;;;;;5047576;28;20041;-37
2021/12/26 05:52:55;;;;;;;7.57;5.05;;;;;;;;;;5031009;28;20025;-36
2021/12/26 05:55:21;;;;;;;8.27;4.57;;;;;;;;;;5030838;28;20036;-36
2021/12/26 05:57:49;;;;;;;10.77;5.32;;;;;;;;;;5031008;28;20379;-36
2021/12/26 06:00:16;;;;;;;7.28;4.50;;;;;;;;;;5030777;28;20037;-36
2021/12/26 06:02:42;;;;;;;5.55;3.97;;;;;;;;;;5032313;28;20036;-37
2021/12/26 06:05:09;;;;;;;6.40;4.15;;;;;;;;;;5030788;28;20049;-36
2021/12/26 06:07:36;;;;;;;5.60;4.18;;;;;;;;;;5030639;28;20484;-36
2021/12/26 06:10:03;;;;;;;7.95;3.60;;;;;;;;;;5030638;28;20109;-36
2021/12/26 06:12:28;;;;;;;6.80;3.83;;;;;;;;;;5030632;28;20022;-36
2021/12/26 06:14:54;;;;;;;11.30;3.58;;;;;;;;;;5030545;28;20049;-36
2021/12/26 06:17:20;;;;;;;4.57;2.95;;;;;;;;;;5030554;28;20100;-36
2021/12/26 06:20:13;;;;;;;3.80;2.80;;;;;;;;;;5021446;28;20514;-36
2021/12/26 06:22:44;;;;;;;5.65;3.25;;;;;;;;;;5030293;28;20036;-36
2021/12/26 06:25:29;;;;;;;19.38;5.13;;;;;;;;;;5031707;28;20091;-36
2021/12/26 06:28:08;;;;;;;7.50;4.10;;;;;;;;;;5030469;28;20033;-36
2021/12/26 06:31:06;;;;;;;7.53;4.15;;;;;;;;;;5008722;28;20041;-36
2021/12/26 06:34:06;;;;;;;6.47;3.15;;;;;;;;;;5031557;28;20077;-36
2021/12/26 06:36:52;;;;;;;8.00;3.78;;;;;;;;;;5010215;28;20037;-37
2021/12/26 06:39:41;;;;;;;4.90;3.47;;;;;;;;;;5012009;28;20391;-36
2021/12/26 06:42:46;;;;;;;6.65;4.05;;;;;;;;;;5009364;28;20862;-36
2021/12/26 06:45:30;;;;;;;6.75;3.60;;;;;;;;;;5009507;28;20096;-36
2021/12/26 06:48:14;;;;;;;6.95;3.67;;;;;;;;;;5024965;28;20391;-36
2021/12/26 06:50:44;;;;;;;11.43;4.60;;;;;;;;;;5046607;28;20173;-36
2021/12/26 06:53:11;;;;;;;8.77;3.38;;;;;;;;;;5031340;28;20472;-36
2021/12/26 06:55:37;;;;;;;6.18;2.72;;;;;;;;;;5031212;28;20045;-36
2021/12/26 06:58:02;;;;;;;8.95;3.17;;;;;;;;;;5031281;28;20025;-37
2021/12/26 07:00:28;;;;;;;5.05;3.47;;;;;;;;;;5031042;28;20045;-36
2021/12/26 07:02:54;;;;;;;5.70;3.30;;;;;;;;;;5029983;28;20036;-36
2021/12/26 07:05:20;;;;;;;6.15;3.17;;;;;;;;;;5029828;28;20033;-36
2021/12/26 07:08:00;;;;;;;5.32;3.60;;;;;;;;;;5029954;28;20033;-36
2021/12/26 07:10:26;;;;;;;10.07;4.38;;;;;;;;;;5029831;28;20037;-36
2021/12/26 07:12:52;;;;;;;7.63;2.92;;;;;;;;;;5029769;28;20021;-36
2021/12/26 07:15:43;;;;;;;6.57;2.67;;;;;;;;;;5029832;28;20061;-36
2021/12/26 07:18:09;;;;;;;6.65;3.28;;;;;;;;;;5029880;28;20034;-36
2021/12/26 07:20:38;;;;;;;3.30;2.30;;;;;;;;;;5029624;28;20137;-36
2021/12/26 07:23:23;;;;;;;2.92;2.00;;;;;;;;;;5031124;28;20044;-36
2021/12/26 07:25:53;;;;;;;3.63;2.65;;;;;;;;;;5046274;28;20037;-36
2021/12/26 07:28:21;;;;;;;4.72;2.42;;;;;;;;;;5029759;28;20025;-36
2021/12/26 07:31:05;;;;;;;2.42;2.15;;;;;;;;;;5031360;28;20542;-36
2021/12/26 07:33:31;;;;;;;2.08;1.88;;;;;;;;;;5029580;28;20447;-36
2021/12/26 07:36:02;;;;;;;2.92;1.98;;;;;;;;;;5029665;28;20018;-36
2021/12/26 07:38:43;;;;;;;3.20;2.00;;;;;;;;;;5046270;28;20091;-36
2021/12/26 07:41:10;;;;;;;2.67;1.90;;;;;;;;;;5030794;28;20072;-36
2021/12/26 07:43:37;;;;;;;3.30;2.20;;;;;;;;;;5029454;28;20037;-36
2021/12/26 07:46:29;;;;;;;2.83;1.83;;;;;;;;;;5029955;28;20033;-36
2021/12/26 07:48:59;;;;;;;4.53;2.10;;;;;;;;;;5029497;28;20120;-37
2021/12/26 07:51:44;;;;;;;11.38;4.90;;;;;;;;;;5030866;28;20040;-36
2021/12/26 07:54:28;;;;;;;1.63;1.35;;;;;;;;;;5030971;28;20503;-36
2021/12/26 07:57:13;;;;;;;2.00;1.40;;;;;;;;;;5031091;28;20119;-36
2021/12/26 07:59:57;;;;;;;1.80;1.35;;;;;;;;;;5033219;28;20091;-36
2021/12/26 08:02:43;;;;;;;2.40;1.38;;;;;;;;;;5030681;28;20042;-36
2021/12/26 08:05:37;;;;;;;1.45;0.90;;;;;;;;;;5034256;28;20042;-36
2021/12/26 08:08:19;;;;;;;0.97;0.83;;;;;;;;;;5049499;28;20582;-36
2021/12/26 08:10:45;;;;;;;2.50;1.77;;;;;;;;;;5049532;28;20116;-36
2021/12/26 08:13:11;;;;;;;3.88;1.55;;;;;;;;;;5032937;28;20022;-36
2021/12/26 08:15:36;;;;;;;1.70;1.17;;;;;;;;;;5032767;28;20033;-37
2021/12/26 08:18:02;;;;;;;0.93;0.82;;;;;;;;;;5034130;28;20028;-36
2021/12/26 08:20:27;;;;;;;1.70;1.05;;;;;;;;;;5033921;28;20064;-36
2021/12/26 08:22:53;;;;;;;1.75;1.10;;;;;;;;;;5034003;28;20018;-36
2021/12/26 08:25:19;;;;;;;2.58;1.73;;;;;;;;;;5033986;28;20021;-37
2021/12/26 08:27:44;;;;;;;5.85;2.05;;;;;;;;;;5033844;28;20773;-36
2021/12/26 08:30:10;;;;;;;3.22;0.80;;;;;;;;;;5034105;28;20025;-36
2021/12/26 08:32:39;;;;;;;3.05;1.02;;;;;;;;;;5033881;28;20464;-36
2021/12/26 08:35:06;;;;;;;2.75;1.30;;;;;;;;;;5033660;28;20040;-36
2021/12/26 08:37:32;;;;;;;1.67;1.10;;;;;;;;;;5033962;28;20025;-36
2021/12/26 08:39:58;;;;;;;1.20;0.82;;;;;;;;;;5033552;28;20511;-37
2021/12/26 08:42:24;;;;;;;1.02;0.70;;;;;;;;;;5033653;28;20034;-36
2021/12/26 08:44:53;;;;;;;2.53;1.17;;;;;;;;;;5033530;28;20026;-36
2021/12/26 08:47:18;;;;;;;3.63;1.45;;;;;;;;;;5033598;28;20026;-36
2021/12/26 08:49:44;;;;;;;0.90;0.85;;;;;;;;;;5033417;28;20029;-36
2021/12/26 08:52:10;;;;;;;0.85;0.85;;;;;;;;;;5033628;28;20028;-36
2021/12/26 08:54:36;;;;;;;0.82;0.82;;;;;;;;;;5033261;28;20113;-36
2021/12/26 08:57:02;;;;;;;1.08;0.88;;;;;;;;;;5033659;28;20021;-36
2021/12/26 08:59:30;;;;;;;1.05;0.80;;;;;;;;;;5031962;28;20021;-36
2021/12/26 09:01:59;;;;;;;1.10;1.00;;;;;;;;;;5033507;28;20403;-36
2021/12/26 09:04:25;;;;;;;0.80;0.65;;;;;;;;;;5033385;28;20383;-36
2021/12/26 09:06:51;;;;;;;1.00;0.63;;;;;;;;;;5033205;28;20033;-36
2021/12/26 09:09:16;;;;;;;3.67;1.05;;;;;;;;;;5033477;28;20030;-36
2021/12/26 09:11:42;;;;;;;1.38;1.08;;;;;;;;;;5032437;28;20582;-35
2021/12/26 09:14:07;;;;;;;2.30;1.50;;;;;;;;;;5032936;28;20072;-37
2021/12/26 09:16:33;;;;;;;1.33;0.95;;;;;;;;;;5033187;28;20030;-36
2021/12/26 09:19:00;;;;;;;9.18;4.10;;;;;;;;;;5033014;28;20033;-36
2021/12/26 09:21:25;;;;;;;1.73;1.08;;;;;;;;;;5032758;28;20033;-36
2021/12/26 09:23:51;;;;;;;2.25;1.20;;;;;;;;;;5032904;28;20029;-36
2021/12/26 09:26:16;;;;;;;1.02;0.93;;;;;;;;;;5032942;28;20053;-36
2021/12/26 09:28:42;;;;;;;0.75;0.70;;;;;;;;;;5032689;28;20026;-36
2021/12/26 09:31:07;;;;;;;1.38;1.02;;;;;;;;;;5033076;28;20022;-36
2021/12/26 09:33:33;;;;;;;0.63;0.50;;;;;;;;;;5032546;28;20357;-36
2021/12/26 09:36:00;;;;;;;1.73;0.90;;;;;;;;;;5032576;28;20029;-36
2021/12/26 09:38:26;;;;;;;0.88;0.60;;;;;;;;;;5032604;28;20036;-36
2021/12/26 09:40:51;;;;;;;1.63;1.10;;;;;;;;;;5032295;28;20058;-36
2021/12/26 09:43:17;;;;;;;2.08;1.05;;;;;;;;;;5032495;28;20029;-36
2021/12/26 09:45:42;;;;;;;0.60;0.60;;;;;;;;;;5032395;28;20057;-35
2021/12/26 09:48:08;;;;;;;1.55;1.20;;;;;;;;;;5032372;28;20131;-36
2021/12/26 09:50:33;;;;;;;3.45;1.05;;;;;;;;;;5032567;28;20057;-36
2021/12/26 09:52:59;;;;;;;1.15;0.98;;;;;;;;;;5032583;28;20164;-36
2021/12/26 09:55:26;;;;;;;1.63;1.15;;;;;;;;;;5032230;28;20455;-36
2021/12/26 09:57:52;;;;;;;1.40;1.30;;;;;;;;;;5032439;28;20122;-36
2021/12/26 10:00:17;;;;;;;1.00;0.80;;;;;;;;;;5032093;28;20157;-36
2021/12/26 10:02:45;;;;;;;1.98;0.82;;;;;;;;;;5031998;28;20070;-36
2021/12/26 10:05:10;;;;;;;2.53;1.02;;;;;;;;;;5032043;28;20029;-36
2021/12/26 10:07:36;;;;;;;0.80;0.75;;;;;;;;;;5032245;28;20112;-36
2021/12/26 10:10:04;;;;;;;1.20;0.80;;;;;;;;;;5032009;28;20456;-36
2021/12/26 10:12:37;;;;;;;1.77;0.98;;;;;;;;;;5031881;28;20112;-36
2021/12/26 10:15:03;;;;;;;0.80;0.70;;;;;;;;;;5030663;28;20443;-36
2021/12/26 10:17:31;;;;;;;0.70;0.70;;;;;;;;;;5032054;28;20028;-36
2021/12/26 10:20:08;;;;;;;0.43;0.43;;;;;;;;;;5031811;28;20116;-37
2021/12/26 10:22:33;;;;;;;0.77;0.70;;;;;;;;;;5030765;28;20049;-36
2021/12/26 10:24:59;;;;;;;1.75;0.98;;;;;;;;;;5031760;28;20017;-36
2021/12/26 10:27:28;;;;;;;1.30;0.60;;;;;;;;;;5031724;28;20365;-36
2021/12/26 10:29:54;;;;;;;0.77;0.77;;;;;;;;;;5031908;28;20079;-36
2021/12/26 10:32:28;;;;;;;0.50;0.50;;;;;;;;;;5031545;28;20032;-36
2021/12/26 10:34:56;;;;;;;1.63;1.00;;;;;;;;;;5031880;28;20064;-36
2021/12/26 10:37:34;;;;;;;0.47;0.47;;;;;;;;;;5030313;28;20380;-36
2021/12/26 10:40:05;;;;;;;1.30;0.95;;;;;;;;;;5031341;28;20040;-36
2021/12/26 10:42:33;;;;;;;0.88;0.70;;;;;;;;;;5046791;28;20033;-36
2021/12/26 10:45:02;;;;;;;1.33;0.55;;;;;;;;;;5031444;28;20065;-36
2021/12/26 10:47:28;;;;;;;2.85;1.20;;;;;;;;;;5031618;28;20099;-36
2021/12/26 10:49:56;;;;;;;2.45;0.90;;;;;;;;;;5031389;28;20021;-35
2021/12/26 10:52:26;;;;;;;2.97;1.30;;;;;;;;;;5031338;28;20043;-36
2021/12/26 10:54:57;;;;;;;2.38;1.30;;;;;;;;;;5031175;28;20038;-36
2021/12/26 10:57:24;;;;;;;2.13;1.10;;;;;;;;;;5030056;28;20029;-36
2021/12/26 11:00:08;;;;;;;1.00;0.63;;;;;;;;;;5031285;28;20021;-36
2021/12/26 11:02:34;;;;;;;1.02;0.70;;;;;;;;;;5031205;28;20045;-35
2021/12/26 11:05:07;;;;;;;1.02;0.93;;;;;;;;;;5031190;28;20112;-36
2021/12/26 11:07:44;;;;;;;0.60;0.60;;;;;;;;;;5029766;28;20444;-36
2021/12/26 11:10:15;;;;;;;0.50;0.50;;;;;;;;;;5031238;28;20128;-36
2021/12/26 11:12:45;;;;;;;1.13;0.45;;;;;;;;;;5031349;28;20037;-36
2021/12/26 11:15:11;;;;;;;2.05;1.05;;;;;;;;;;5031159;28;20522;-36
2021/12/26 11:17:39;;;;;;;0.88;0.70;;;;;;;;;;5031085;28;20033;-36
2021/12/26 11:20:06;;;;;;;0.52;0.32;;;;;;;;;;5031195;28;20111;-36
2021/12/26 11:22:31;;;;;;;0.82;0.57;;;;;;;;;;5031097;28;20051;-36
2021/12/26 11:24:59;;;;;;;0.60;0.60;;;;;;;;;;5031099;28;20446;-36
2021/12/26 11:27:26;;;;;;;0.55;0.55;;;;;;;;;;5046326;28;20026;-36
2021/12/26 11:29:53;;;;;;;0.68;0.65;;;;;;;;;;5030895;28;20479;-36
2021/12/26 11:32:23;;;;;;;1.23;1.13;;;;;;;;;;5031043;28;20064;-36
2021/12/26 11:34:49;;;;;;;0.80;0.60;;;;;;;;;;5033176;28;20041;-36
2021/12/26 11:37:15;;;;;;;0.65;0.63;;;;;;;;;;5035109;28;20359;-36
2021/12/26 11:40:01;;;;;;;0.98;0.68;;;;;;;;;;5023483;28;20079;-36
2021/12/26 11:42:57;;;;;;;2.13;1.00;;;;;;;;;;5033963;28;20045;-36
2021/12/26 11:45:45;;;;;;;0.47;0.47;;;;;;;;;;5034959;28;20056;-36
2021/12/26 11:48:36;;;;;;;1.30;0.40;;;;;;;;;;5034661;28;20047;-36
2021/12/26 11:51:20;;;;;;;2.50;0.95;;;;;;;;;;5034908;28;20084;-36
2021/12/26 11:54:10;;;;;;;1.75;0.70;;;;;;;;;;5034765;28;20037;-36
2021/12/26 11:57:02;;;;;;;1.05;0.50;;;;;;;;;;5033113;28;20488;-36
2021/12/26 11:59:38;;;;;;;0.88;0.70;;;;;;;;;;5034465;28;20128;-36
2021/12/26 12:02:04;;;;;;;1.00;0.70;;;;;;;;;;5034620;28;20061;-36
2021/12/26 12:04:30;;;;;;;1.38;0.70;;;;;;;;;;5034169;28;20453;-36
2021/12/26 12:07:02;;;;;;;1.08;0.90;;;;;;;;;;5034370;28;20056;-36
2021/12/26 12:09:32;;;;;;;1.17;0.85;;;;;;;;;;5034343;28;20555;-36
2021/12/26 12:12:01;;;;;;;1.35;1.10;;;;;;;;;;5034258;28;20025;-36
2021/12/26 12:14:45;;;;;;;1.23;0.90;;;;;;;;;;5034146;28;20037;-36
2021/12/26 12:17:20;;;;;;;0.88;0.60;;;;;;;;;;5034129;28;20034;-37
2021/12/26 12:20:04;;;;;;;1.65;0.60;;;;;;;;;;5033926;28;20132;-36
2021/12/26 12:22:29;;;;;;;2.65;0.70;;;;;;;;;;5033928;28;20034;-36
2021/12/26 12:24:55;;;;;;;1.42;1.25;;;;;;;;;;5033888;28;20435;-36
2021/12/26 12:27:22;;;;;;;0.50;0.50;;;;;;;;;;5033929;28;20071;-36
2021/12/26 12:29:50;;;;;;;1.25;0.65;;;;;;;;;;5033832;28;20184;-36
2021/12/26 12:32:17;;;;;;;1.27;0.70;;;;;;;;;;5033815;28;20037;-36
2021/12/26 12:34:48;;;;;;;0.55;0.55;;;;;;;;;;5033702;28;20025;-36
2021/12/26 12:37:37;;;;;;;1.38;0.70;;;;;;;;;;5034093;28;20045;-36
2021/12/26 12:40:12;;;;;;;0.60;0.60;;;;;;;;;;5033480;28;20037;-36
2021/12/26 12:42:39;;;;;;;0.52;0.47;;;;;;;;;;5033559;28;20072;-36
2021/12/26 12:45:05;;;;;;;1.17;0.90;;;;;;;;;;5033245;28;20084;-36
2021/12/26 12:47:31;;;;;;;0.60;0.50;;;;;;;;;;5033097;28;20040;-36
2021/12/26 12:50:02;;;;;;;4.60;0.73;;;;;;;;;;5033860;28;20033;-36
2021/12/26 12:52:47;;;;;;;2.67;0.68;;;;;;;;;;5033485;28;20033;-36
2021/12/26 12:55:12;;;;;;;0.50;0.50;;;;;;;;;;5033682;28;20400;-36
2021/12/26 12:57:39;;;;;;;1.27;0.68;;;;;;;;;;5033643;28;20030;-36
2021/12/26 13:00:23;;;;;;;0.80;0.43;;;;;;;;;;5033432;28;20033;-36
2021/12/26 13:02:49;;;;;;;0.90;0.80;;;;;;;;;;5033490;28;20037;-36
2021/12/26 13:05:23;;;;;;;1.23;0.88;;;;;;;;;;5033244;28;20014;-36
2021/12/26 13:07:55;;;;;;;2.10;0.98;;;;;;;;;;5033090;28;20048;-36
2021/12/26 13:10:21;;;;;;;3.30;0.90;;;;;;;;;;5032254;28;20045;-36
2021/12/26 13:12:47;;;;;;;0.57;0.57;;;;;;;;;;5033367;28;20371;-36
2021/12/26 13:15:14;;;;;;;1.15;1.05;;;;;;;;;;5033368;28;20026;-36
2021/12/26 13:17:40;;;;;;;0.43;0.43;;;;;;;;;;5033194;28;20028;-36
2021/12/26 13:20:06;;;;;;;1.60;0.77;;;;;;;;;;5033097;28;20120;-36
2021/12/26 13:22:44;;;;;;;0.47;0.47;;;;;;;;;;5032699;28;20543;-36
2021/12/26 13:25:10;;;;;;;0.57;0.43;;;;;;;;;;5033247;28;20091;-36
2021/12/26 13:27:36;;;;;;;1.20;0.80;;;;;;;;;;5032734;28;20091;-36
2021/12/26 13:30:03;;;;;;;0.77;0.68;;;;;;;;;;5032825;28;20033;-36
2021/12/26 13:32:36;;;;;;;0.60;0.55;;;;;;;;;;5032750;28;20017;-36
2021/12/26 13:35:03;;;;;;;0.65;0.63;;;;;;;;;;5032696;28;20545;-36
2021/12/26 13:37:32;;;;;;;0.95;0.90;;;;;;;;;;5032617;28;20025;-36
2021/12/26 13:39:59;;;;;;;0.65;0.60;;;;;;;;;;5032581;28;20033;-39
2021/12/26 13:42:25;;;;;;;0.52;0.52;;;;;;;;;;5032348;28;20060;-36
2021/12/26 13:44:50;;;;;;;3.55;0.82;;;;;;;;;;5032292;28;20038;-36
2021/12/26 13:47:17;;;;;;;0.95;0.63;;;;;;;;;;5032441;28;20029;-36
2021/12/26 13:49:42;;;;;;;1.05;0.70;;;;;;;;;;5032365;28;20053;-36
2021/12/26 13:52:08;;;;;;;1.30;1.20;;;;;;;;;;5032289;28;20072;-36
2021/12/26 13:54:48;;;;;;;1.33;1.05;;;;;;;;;;5032176;28;20059;-36
2021/12/26 13:57:16;;;;;;;1.08;0.90;;;;;;;;;;5032336;28;20120;-36
2021/12/26 13:59:42;;;;;;;2.30;0.73;;;;;;;;;;5032169;28;20029;-36
2021/12/26 14:02:12;;;;;;;1.92;1.10;;;;;;;;;;5032383;28;20038;-38
2021/12/26 14:04:39;;;;;;;1.10;0.82;;;;;;;;;;5043781;28;20059;-37
2021/12/26 14:07:08;;;;;;;1.38;1.23;;;;;;;;;;5032110;28;20057;-36
2021/12/26 14:09:38;;;;;;;2.22;1.10;;;;;;;;;;5031940;28;20025;-36
2021/12/26 14:12:05;;;;;;;1.55;0.80;;;;;;;;;;5032013;28;20622;-36
2021/12/26 14:14:35;;;;;;;0.82;0.77;;;;;;;;;;5031930;28;20017;-36
2021/12/26 14:17:05;;;;;;;1.05;0.65;;;;;;;;;;5031973;28;20133;-36
2021/12/26 14:19:31;;;;;;;0.93;0.80;;;;;;;;;;5031847;28;20028;-36
2021/12/26 14:21:56;;;;;;;2.35;1.75;;;;;;;;;;5032076;28;20038;-36
2021/12/26 14:24:23;;;;;;;1.45;0.60;;;;;;;;;;5031786;28;20633;-36
2021/12/26 14:26:51;;;;;;;1.48;0.90;;;;;;;;;;5031608;28;20037;-36
2021/12/26 14:29:20;;;;;;;0.80;0.70;;;;;;;;;;5032062;28;20025;-36
2021/12/26 14:31:47;;;;;;;2.05;1.25;;;;;;;;;;5031854;28;20029;-39
2021/12/26 14:34:14;;;;;;;1.70;0.88;;;;;;;;;;5031835;28;20025;-37
2021/12/26 14:36:48;;;;;;;1.33;0.88;;;;;;;;;;5031519;28;20084;-36
2021/12/26 14:39:14;;;;;;;1.92;0.95;;;;;;;;;;5031819;28;20033;-36
2021/12/26 14:41:44;;;;;;;1.10;0.95;;;;;;;;;;5031275;28;20122;-36
2021/12/26 14:44:15;;;;;;;1.67;0.90;;;;;;;;;;5031493;28;20027;-36
2021/12/26 14:46:41;;;;;;;2.13;1.00;;;;;;;;;;5031308;28;20079;-36
2021/12/26 14:49:11;;;;;;;2.35;1.20;;;;;;;;;;5031400;28;20014;-36
2021/12/26 14:51:37;;;;;;;2.42;1.20;;;;;;;;;;5031652;28;20112;-36
2021/12/26 14:54:07;;;;;;;1.70;1.20;;;;;;;;;;5031291;28;20096;-36
2021/12/26 14:56:44;;;;;;;3.05;1.10;;;;;;;;;;5031514;28;20044;-36
2021/12/26 14:59:21;;;;;;;2.03;1.35;;;;;;;;;;5031606;28;20025;-36
2021/12/26 15:01:47;;;;;;;1.08;0.98;;;;;;;;;;5031141;28;20049;-36
2021/12/26 15:04:13;;;;;;;3.45;1.23;;;;;;;;;;5031544;28;20030;-36
2021/12/26 15:06:47;;;;;;;1.15;0.82;;;;;;;;;;5031189;28;20032;-36